Time;durP1;ratioP1;P1;durP2;ratioP2;P2;SDS_P1;SDS_P2;PMS_P1;PMS_P2;Temp;Humidity;BMP_temperature;BMP_pressure;BME280_temperature;BME280_humidity;BME280_pressure;Samples;Min_cycle;Max_cycle;Signal;HPM_P1;HPM_P2
2022/08/17 03:45:00;;;;;;;9.27;2.60;;;;;;;;;;5058761;27;20951;-63
2022/08/17 13:47:16;;;;;;;9.55;2.10;;;;;;;;;;5056913;27;20440;-62
2022/08/17 13:49:42;;;;;;;5.82;1.98;;;;;;;;;;5042532;28;20158;-60
2022/08/17 13:52:31;;;;;;;4.47;2.47;;;;;;;;;;5032627;28;20049;-60
2022/08/17 13:55:00;;;;;;;3.85;1.85;;;;;;;;;;5058735;28;20525;-61
2022/08/17 13:57:26;;;;;;;8.63;1.95;;;;;;;;;;5059037;28;20052;-59
2022/08/17 13:59:57;;;;;;;9.57;2.00;;;;;;;;;;5057666;28;20534;-59
2022/08/17 14:02:24;;;;;;;4.47;2.13;;;;;;;;;;5057039;28;20116;-60
2022/08/17 14:04:50;;;;;;;4.35;1.98;;;;;;;;;;5057812;28;20036;-60
2022/08/17 14:07:18;;;;;;;5.40;2.05;;;;;;;;;;5058890;28;20103;-59
2022/08/17 14:09:49;;;;;;;4.03;1.92;;;;;;;;;;5057067;28;20060;-59
2022/08/17 14:12:17;;;;;;;6.95;2.15;;;;;;;;;;5057965;28;20040;-60
2022/08/17 14:14:44;;;;;;;5.50;1.80;;;;;;;;;;5060904;28;20049;-60
2022/08/17 14:17:11;;;;;;;11.30;2.00;;;;;;;;;;5058752;28;20044;-59
2022/08/17 14:19:38;;;;;;;4.40;2.00;;;;;;;;;;5055526;28;20033;-60
2022/08/17 14:22:07;;;;;;;4.88;2.35;;;;;;;;;;5057754;28;20040;-60
2022/08/17 14:24:36;;;;;;;3.78;1.95;;;;;;;;;;5059693;28;20047;-60
2022/08/17 14:27:05;;;;;;;3.67;1.75;;;;;;;;;;5055980;28;20140;-60
2022/08/17 14:29:33;;;;;;;3.85;1.98;;;;;;;;;;5055245;28;20026;-62
2022/08/17 14:32:03;;;;;;;4.25;1.80;;;;;;;;;;5056826;28;20032;-60
2022/08/17 14:34:30;;;;;;;4.47;2.00;;;;;;;;;;5057452;28;20091;-60
2022/08/17 14:36:57;;;;;;;4.47;2.00;;;;;;;;;;5058527;28;20396;-60
2022/08/17 14:39:23;;;;;;;4.60;1.83;;;;;;;;;;5055963;28;20044;-60
2022/08/17 14:41:51;;;;;;;4.38;2.05;;;;;;;;;;5040507;28;20160;-60
2022/08/17 14:44:18;;;;;;;6.10;1.90;;;;;;;;;;5034685;28;20509;-60
2022/08/17 14:46:46;;;;;;;3.75;1.75;;;;;;;;;;5032543;28;20690;-60
2022/08/17 14:49:14;;;;;;;4.45;1.73;;;;;;;;;;5031922;28;20042;-59
2022/08/17 14:51:41;;;;;;;4.00;1.88;;;;;;;;;;5033586;28;20048;-61
2022/08/17 14:54:08;;;;;;;3.53;1.52;;;;;;;;;;5046741;28;20080;-60
2022/08/17 14:56:35;;;;;;;5.97;1.60;;;;;;;;;;5029305;28;20419;-61
2022/08/17 14:59:02;;;;;;;3.05;1.42;;;;;;;;;;5018796;28;20049;-60
2022/08/17 15:01:29;;;;;;;6.70;1.83;;;;;;;;;;5019307;28;20033;-61
2022/08/17 15:03:55;;;;;;;5.93;1.80;;;;;;;;;;5021391;28;20045;-60
2022/08/17 15:06:23;;;;;;;4.35;1.60;;;;;;;;;;5018044;28;20080;-61
2022/08/17 15:08:52;;;;;;;4.65;1.45;;;;;;;;;;5022442;28;20386;-61
2022/08/17 15:11:18;;;;;;;6.38;1.60;;;;;;;;;;5019783;28;20037;-61
2022/08/17 15:13:47;;;;;;;3.65;1.58;;;;;;;;;;5043457;28;20041;-59
2022/08/17 15:16:14;;;;;;;4.38;1.45;;;;;;;;;;5044299;28;20041;-60
2022/08/17 15:18:40;;;;;;;7.05;1.60;;;;;;;;;;5044490;28;20080;-60
2022/08/17 15:21:13;;;;;;;5.10;1.65;;;;;;;;;;5044071;28;20121;-59
2022/08/17 15:23:40;;;;;;;3.72;1.40;;;;;;;;;;5041387;28;20044;-60
2022/08/17 15:26:07;;;;;;;4.97;1.58;;;;;;;;;;5042405;28;20049;-60
2022/08/17 15:28:33;;;;;;;3.72;1.70;;;;;;;;;;5043932;28;20041;-60
2022/08/17 15:31:00;;;;;;;4.03;1.42;;;;;;;;;;5043069;28;21191;-60
2022/08/17 15:33:30;;;;;;;3.58;1.40;;;;;;;;;;5041477;28;20052;-59
2022/08/17 15:35:58;;;;;;;7.95;2.53;;;;;;;;;;5043849;28;20044;-60
2022/08/17 15:38:25;;;;;;;3.25;1.35;;;;;;;;;;5032649;28;20124;-60
2022/08/17 15:40:52;;;;;;;4.40;1.58;;;;;;;;;;5018331;28;20552;-60
2022/08/17 15:43:23;;;;;;;4.95;1.58;;;;;;;;;;5019442;28;20068;-60
2022/08/17 15:45:58;;;;;;;6.53;1.50;;;;;;;;;;5016047;28;20065;-60
2022/08/17 15:48:39;;;;;;;4.97;1.20;;;;;;;;;;5019680;28;20038;-60
2022/08/17 15:51:06;;;;;;;3.10;1.10;;;;;;;;;;5015927;28;20088;-61
2022/08/17 15:53:33;;;;;;;4.78;1.13;;;;;;;;;;5019338;28;20047;-60
2022/08/17 15:55:59;;;;;;;3.47;1.40;;;;;;;;;;5019179;28;20041;-60
2022/08/17 15:58:28;;;;;;;3.78;1.55;;;;;;;;;;5019695;28;20050;-60
2022/08/17 16:00:54;;;;;;;3.42;1.40;;;;;;;;;;5018022;28;20652;-60
2022/08/17 16:03:21;;;;;;;3.38;1.00;;;;;;;;;;5020088;28;20048;-60
2022/08/17 16:05:48;;;;;;;4.22;1.10;;;;;;;;;;5020112;28;20044;-60
2022/08/17 16:08:15;;;;;;;5.03;1.08;;;;;;;;;;5018504;28;20041;-60
2022/08/17 16:10:42;;;;;;;4.10;1.25;;;;;;;;;;5018972;28;20071;-60
2022/08/17 16:13:10;;;;;;;4.40;1.20;;;;;;;;;;5020312;28;20087;-60
2022/08/17 16:15:37;;;;;;;4.15;1.25;;;;;;;;;;5017239;28;20088;-60
2022/08/17 16:18:04;;;;;;;8.27;1.98;;;;;;;;;;5018801;28;20034;-61
2022/08/17 16:20:31;;;;;;;3.92;1.13;;;;;;;;;;5015844;28;20034;-61
2022/08/17 16:22:57;;;;;;;5.32;2.08;;;;;;;;;;5018829;28;20041;-61
2022/08/17 16:25:28;;;;;;;4.85;1.17;;;;;;;;;;5020428;28;20061;-60
2022/08/17 16:27:55;;;;;;;3.08;0.98;;;;;;;;;;5017062;28;20065;-60
2022/08/17 16:30:23;;;;;;;3.72;0.90;;;;;;;;;;5016993;28;20046;-60
2022/08/17 16:32:51;;;;;;;2.80;1.00;;;;;;;;;;5020745;28;20055;-59
2022/08/17 16:35:20;;;;;;;3.10;0.93;;;;;;;;;;5019097;28;20045;-59
2022/08/17 16:37:47;;;;;;;5.05;0.93;;;;;;;;;;5042303;28;20561;-59
2022/08/17 16:40:15;;;;;;;2.95;0.82;;;;;;;;;;5042664;28;20382;-60
2022/08/17 16:42:42;;;;;;;3.53;0.85;;;;;;;;;;5041784;28;20047;-59
2022/08/17 16:45:13;;;;;;;4.22;0.95;;;;;;;;;;5041867;28;20060;-60
2022/08/17 16:47:40;;;;;;;3.40;0.90;;;;;;;;;;5041988;28;20486;-59
2022/08/17 16:50:08;;;;;;;4.35;1.00;;;;;;;;;;5022621;28;20044;-60
2022/08/17 16:52:35;;;;;;;3.38;0.90;;;;;;;;;;5018045;28;20037;-60
2022/08/17 16:55:03;;;;;;;3.78;0.88;;;;;;;;;;5016624;28;20095;-59
2022/08/17 16:57:30;;;;;;;3.55;1.10;;;;;;;;;;5018021;28;20037;-59
2022/08/17 16:59:57;;;;;;;3.13;0.93;;;;;;;;;;5017774;28;20041;-59
2022/08/17 17:02:25;;;;;;;3.53;1.00;;;;;;;;;;5017145;28;20577;-59
2022/08/17 17:04:55;;;;;;;2.38;0.80;;;;;;;;;;5017510;28;20828;-59
2022/08/17 17:07:40;;;;;;;2.33;0.88;;;;;;;;;;5015038;28;20458;-60
2022/08/17 17:10:12;;;;;;;4.07;1.00;;;;;;;;;;5015922;28;20041;-60
2022/08/17 17:12:40;;;;;;;3.25;1.00;;;;;;;;;;5016898;28;20045;-61
2022/08/17 17:15:07;;;;;;;2.60;0.88;;;;;;;;;;5018593;28;20064;-59
2022/08/17 17:17:34;;;;;;;2.38;0.80;;;;;;;;;;5016530;28;20091;-60
2022/08/17 17:20:01;;;;;;;2.67;0.90;;;;;;;;;;5015597;28;20033;-60
2022/08/17 17:22:46;;;;;;;3.45;0.80;;;;;;;;;;5016459;28;20040;-60
2022/08/17 17:25:25;;;;;;;3.08;0.80;;;;;;;;;;5018734;28;20136;-60
2022/08/17 17:28:00;;;;;;;7.07;0.93;;;;;;;;;;5041460;28;20051;-60
2022/08/17 17:30:37;;;;;;;3.78;1.00;;;;;;;;;;5039441;28;20052;-61
2022/08/17 17:33:06;;;;;;;3.33;0.80;;;;;;;;;;5043635;28;20051;-60
2022/08/17 17:35:34;;;;;;;3.22;0.88;;;;;;;;;;5043832;28;20777;-60
2022/08/17 17:38:06;;;;;;;3.47;0.85;;;;;;;;;;5040937;28;20029;-61
2022/08/17 17:40:44;;;;;;;3.35;0.70;;;;;;;;;;5040431;28;20810;-61
2022/08/17 17:43:13;;;;;;;2.90;0.90;;;;;;;;;;5021683;28;20474;-61
2022/08/17 17:46:03;;;;;;;5.38;0.80;;;;;;;;;;5018443;28;20107;-61
2022/08/17 17:48:30;;;;;;;3.58;0.90;;;;;;;;;;5019411;28;20044;-61
2022/08/17 17:51:00;;;;;;;3.03;0.80;;;;;;;;;;5011469;28;21730;-60
2022/08/17 17:53:47;;;;;;;2.30;0.73;;;;;;;;;;5018516;28;20052;-60
2022/08/17 17:56:22;;;;;;;3.17;0.95;;;;;;;;;;5017955;28;20519;-58
2022/08/17 17:58:48;;;;;;;2.85;0.80;;;;;;;;;;5041129;28;20051;-58
2022/08/17 18:01:33;;;;;;;2.60;0.73;;;;;;;;;;5042408;28;20047;-60
2022/08/17 18:04:19;;;;;;;2.40;0.80;;;;;;;;;;5017967;28;20041;-59
2022/08/17 18:06:56;;;;;;;2.53;0.80;;;;;;;;;;5041898;28;20436;-58
2022/08/17 18:09:25;;;;;;;2.50;0.90;;;;;;;;;;5043039;28;20048;-58
2022/08/17 18:12:10;;;;;;;2.22;0.70;;;;;;;;;;5042681;28;20080;-59
2022/08/17 18:14:36;;;;;;;3.88;0.70;;;;;;;;;;5043460;28;20049;-59
2022/08/17 18:17:03;;;;;;;1.83;0.70;;;;;;;;;;5042241;28;20091;-58
2022/08/17 18:19:30;;;;;;;2.20;0.70;;;;;;;;;;5040921;28;20039;-59
2022/08/17 18:22:00;;;;;;;2.00;0.60;;;;;;;;;;5044089;28;20063;-59
2022/08/17 18:24:38;;;;;;;2.53;0.70;;;;;;;;;;5044460;28;20041;-58
2022/08/17 18:27:18;;;;;;;2.67;0.80;;;;;;;;;;5039364;28;20397;-60
2022/08/17 18:29:45;;;;;;;2.10;0.60;;;;;;;;;;5015697;28;20596;-60
2022/08/17 18:32:27;;;;;;;2.70;0.88;;;;;;;;;;5017893;28;20067;-60
2022/08/17 18:34:56;;;;;;;3.10;0.70;;;;;;;;;;5021315;28;20410;-60
2022/08/17 18:37:35;;;;;;;1.90;0.57;;;;;;;;;;5021565;28;20191;-60
2022/08/17 18:40:22;;;;;;;2.10;0.70;;;;;;;;;;5020446;28;20066;-60
2022/08/17 18:42:54;;;;;;;3.15;0.75;;;;;;;;;;5043598;28;20045;-59
2022/08/17 18:45:39;;;;;;;4.55;0.85;;;;;;;;;;5044868;28;20053;-60
2022/08/17 18:48:18;;;;;;;2.97;0.90;;;;;;;;;;5044061;28;20056;-58
2022/08/17 18:50:44;;;;;;;3.60;0.70;;;;;;;;;;5021660;28;20182;-59
2022/08/17 18:53:20;;;;;;;2.65;0.73;;;;;;;;;;5020501;28;20029;-60
2022/08/17 18:55:47;;;;;;;4.43;0.80;;;;;;;;;;5026629;28;20068;-61
2022/08/17 18:58:24;;;;;;;2.75;0.82;;;;;;;;;;5026839;28;20037;-59
2022/08/17 19:00:51;;;;;;;3.60;0.70;;;;;;;;;;5024542;28;20484;-58
2022/08/17 19:03:17;;;;;;;2.75;0.80;;;;;;;;;;5025602;28;20431;-59
2022/08/17 19:05:47;;;;;;;2.33;0.77;;;;;;;;;;5034573;28;20048;-59
2022/08/17 19:08:15;;;;;;;1.50;0.60;;;;;;;;;;5023262;28;20515;-59
2022/08/17 19:10:43;;;;;;;3.38;0.60;;;;;;;;;;5025251;28;20041;-59
2022/08/17 19:13:15;;;;;;;3.22;0.88;;;;;;;;;;5022981;28;20038;-59
2022/08/17 19:15:47;;;;;;;4.00;0.73;;;;;;;;;;5024519;28;20049;-59
2022/08/17 19:18:31;;;;;;;3.00;0.73;;;;;;;;;;5027249;28;20037;-59
2022/08/17 19:21:02;;;;;;;2.05;0.60;;;;;;;;;;5023117;28;20044;-60
2022/08/17 19:23:37;;;;;;;3.67;0.73;;;;;;;;;;5021517;28;20048;-60
2022/08/17 19:26:05;;;;;;;2.40;0.70;;;;;;;;;;5026308;28;20109;-60
2022/08/17 19:28:34;;;;;;;2.85;0.80;;;;;;;;;;5021209;28;20037;-59
2022/08/17 19:31:04;;;;;;;3.10;0.70;;;;;;;;;;5024308;28;20034;-60
2022/08/17 19:33:31;;;;;;;2.88;0.90;;;;;;;;;;5026147;28;20034;-59
2022/08/17 19:36:05;;;;;;;3.05;0.70;;;;;;;;;;5023954;28;20100;-60
2022/08/17 19:38:42;;;;;;;3.30;0.70;;;;;;;;;;5020383;28;20179;-60
2022/08/17 19:41:27;;;;;;;3.30;0.98;;;;;;;;;;5025047;28;20041;-60
2022/08/17 19:43:56;;;;;;;2.60;0.68;;;;;;;;;;5024350;28;20172;-60
2022/08/17 19:46:24;;;;;;;5.07;0.73;;;;;;;;;;5022041;28;20052;-60
2022/08/17 19:48:51;;;;;;;2.95;0.65;;;;;;;;;;5025859;28;20131;-60
2022/08/17 19:51:18;;;;;;;2.40;0.80;;;;;;;;;;5038202;28;21687;-60
2022/08/17 19:53:47;;;;;;;6.93;1.60;;;;;;;;;;5032093;28;20033;-60
2022/08/17 19:56:25;;;;;;;2.70;0.90;;;;;;;;;;5018401;28;20568;-60
2022/08/17 19:59:18;;;;;;;3.15;0.90;;;;;;;;;;5042113;28;20037;-60
2022/08/17 20:01:51;;;;;;;2.90;0.90;;;;;;;;;;5014270;28;20033;-61
2022/08/17 20:04:40;;;;;;;8.60;3.50;;;;;;;;;;5042863;28;20041;-60
2022/08/17 20:07:10;;;;;;;4.05;1.10;;;;;;;;;;5043560;28;20068;-59
2022/08/17 20:09:43;;;;;;;3.67;1.10;;;;;;;;;;5042462;28;20076;-59
2022/08/17 20:12:10;;;;;;;4.30;0.95;;;;;;;;;;5042329;28;20174;-59
2022/08/17 20:14:45;;;;;;;3.85;1.23;;;;;;;;;;5042916;28;20036;-60
2022/08/17 20:17:12;;;;;;;2.42;0.70;;;;;;;;;;5043338;28;20056;-60
2022/08/17 20:19:50;;;;;;;5.15;0.65;;;;;;;;;;5038487;28;20408;-60
2022/08/17 20:22:41;;;;;;;3.55;0.80;;;;;;;;;;5043510;28;20041;-59
2022/08/17 20:25:07;;;;;;;2.97;0.70;;;;;;;;;;5042410;28;20055;-58
2022/08/17 20:27:35;;;;;;;2.92;0.80;;;;;;;;;;5043279;28;20171;-60
2022/08/17 20:30:12;;;;;;;2.10;0.68;;;;;;;;;;5043669;28;20194;-60
2022/08/17 20:32:42;;;;;;;2.60;0.70;;;;;;;;;;5041563;28;20049;-60
2022/08/17 20:35:29;;;;;;;4.80;0.88;;;;;;;;;;5044619;28;20140;-60
2022/08/17 20:37:56;;;;;;;2.92;1.00;;;;;;;;;;5042138;28;20043;-60
2022/08/17 20:40:27;;;;;;;2.78;0.70;;;;;;;;;;5041297;28;20038;-60
2022/08/17 20:42:55;;;;;;;3.05;1.00;;;;;;;;;;5044115;28;20047;-60
2022/08/17 20:45:24;;;;;;;1.90;0.68;;;;;;;;;;5045419;28;20063;-60
2022/08/17 20:47:56;;;;;;;4.05;0.98;;;;;;;;;;5044256;28;20055;-60
2022/08/17 20:50:29;;;;;;;2.20;0.80;;;;;;;;;;5045777;28;20037;-60
2022/08/17 20:52:57;;;;;;;6.22;0.90;;;;;;;;;;5044274;28;20041;-60
2022/08/17 20:55:44;;;;;;;2.40;0.80;;;;;;;;;;5043597;28;20048;-59
2022/08/17 20:58:17;;;;;;;4.32;0.90;;;;;;;;;;5038705;28;20043;-58
2022/08/17 21:00:43;;;;;;;2.40;0.80;;;;;;;;;;5045675;28;20037;-58
2022/08/17 21:03:22;;;;;;;3.35;0.90;;;;;;;;;;5045164;28;20115;-59
2022/08/17 21:06:06;;;;;;;2.90;0.90;;;;;;;;;;5041232;28;20049;-60
2022/08/17 21:08:52;;;;;;;2.80;1.05;;;;;;;;;;5040537;28;20398;-59
2022/08/17 21:11:27;;;;;;;3.53;0.90;;;;;;;;;;5039890;28;20405;-60
2022/08/17 21:13:57;;;;;;;2.75;0.90;;;;;;;;;;5042901;28;20053;-59
2022/08/17 21:16:28;;;;;;;4.75;0.85;;;;;;;;;;5043385;28;20594;-61
2022/08/17 21:18:58;;;;;;;4.43;1.02;;;;;;;;;;5042878;28;20127;-60
2022/08/17 21:21:43;;;;;;;3.75;0.98;;;;;;;;;;5040267;28;20810;-60
2022/08/17 21:24:13;;;;;;;4.85;1.10;;;;;;;;;;5024141;28;20050;-60
2022/08/17 21:26:45;;;;;;;4.72;0.98;;;;;;;;;;5020662;28;20416;-60
2022/08/17 21:29:13;;;;;;;;;;;;;;;;;;5019178;28;20045;-60
2022/08/17 21:31:44;;;;;;;4.05;1.20;;;;;;;;;;5019034;28;19932;-60
2022/08/17 21:34:16;;;;;;;3.95;1.10;;;;;;;;;;5019191;28;20122;-60
2022/08/17 21:36:43;;;;;;;4.15;0.90;;;;;;;;;;5018191;28;20136;-59
2022/08/17 21:39:12;;;;;;;4.03;1.08;;;;;;;;;;5017964;28;20483;-60
2022/08/17 21:41:54;;;;;;;7.63;1.17;;;;;;;;;;5018165;28;20029;-59
2022/08/17 21:44:38;;;;;;;3.85;1.10;;;;;;;;;;5015615;28;20075;-59
2022/08/17 21:47:31;;;;;;;2.83;0.90;;;;;;;;;;5018054;28;20041;-60
2022/08/17 21:50:13;;;;;;;5.88;1.05;;;;;;;;;;5011097;28;20088;-61
2022/08/17 21:52:40;;;;;;;2.78;1.00;;;;;;;;;;5021186;28;20038;-62
2022/08/17 21:55:07;;;;;;;4.47;0.90;;;;;;;;;;5019049;28;20041;-60
2022/08/17 21:57:34;;;;;;;5.53;1.00;;;;;;;;;;5014848;28;20049;-61
2022/08/17 22:00:01;;;;;;;5.43;1.00;;;;;;;;;;5016528;28;20041;-61
2022/08/17 22:02:35;;;;;;;4.55;0.90;;;;;;;;;;5017108;28;20741;-61
2022/08/17 22:05:05;;;;;;;2.60;0.90;;;;;;;;;;5017331;28;20041;-61
2022/08/17 22:07:40;;;;;;;4.18;0.90;;;;;;;;;;5019395;28;20048;-61
2022/08/17 22:10:09;;;;;;;3.78;1.02;;;;;;;;;;5022268;28;20045;-61
2022/08/17 22:12:35;;;;;;;5.78;1.00;;;;;;;;;;5021264;28;20037;-62
2022/08/17 22:15:08;;;;;;;3.83;1.00;;;;;;;;;;5024239;28;20088;-62
2022/08/17 22:17:37;;;;;;;2.83;0.90;;;;;;;;;;5020475;28;20052;-61
2022/08/17 22:20:13;;;;;;;5.22;1.17;;;;;;;;;;5021147;28;20039;-62
2022/08/17 22:26:05;;;;;;;5.25;1.17;;;;;;;;;;5045959;28;20052;-62
2022/08/17 22:28:49;;;;;;;3.80;1.05;;;;;;;;;;5046131;28;20037;-60
2022/08/17 22:31:17;;;;;;;3.67;1.10;;;;;;;;;;5043562;28;20595;-62
2022/08/17 22:33:47;;;;;;;4.25;1.15;;;;;;;;;;5045382;28;20037;-59
2022/08/17 22:36:27;;;;;;;3.88;1.00;;;;;;;;;;5045235;28;20057;-62
2022/08/17 22:38:56;;;;;;;3.13;1.00;;;;;;;;;;5045208;28;20068;-62
2022/08/17 22:41:30;;;;;;;2.53;0.90;;;;;;;;;;5045210;28;20699;-62
2022/08/17 22:44:01;;;;;;;7.97;1.20;;;;;;;;;;5047009;28;20594;-61
2022/08/17 22:46:29;;;;;;;4.10;1.13;;;;;;;;;;5045491;28;20048;-61
2022/08/17 22:48:58;;;;;;;5.50;1.15;;;;;;;;;;5046760;28;20049;-62
2022/08/17 22:51:27;;;;;;;3.85;1.08;;;;;;;;;;5033999;28;20041;-61
2022/08/17 22:59:56;;;;;;;3.72;1.10;;;;;;;;;;5020425;28;20041;-62
2022/08/17 23:02:25;;;;;;;3.72;1.13;;;;;;;;;;5023266;28;20104;-61
2022/08/17 23:05:15;;;;;;;5.45;1.17;;;;;;;;;;5023856;28;20042;-62
2022/08/17 23:07:43;;;;;;;9.75;1.00;;;;;;;;;;5022475;28;20041;-61
2022/08/17 23:10:10;;;;;;;3.05;0.88;;;;;;;;;;5028212;28;20044;-61
2022/08/17 23:12:38;;;;;;;7.45;1.20;;;;;;;;;;5025599;28;20052;-62
2022/08/17 23:15:09;;;;;;;3.08;1.05;;;;;;;;;;5026889;28;20079;-61
2022/08/17 23:17:36;;;;;;;4.15;0.80;;;;;;;;;;5024430;28;20038;-61
2022/08/17 23:20:07;;;;;;;6.32;1.42;;;;;;;;;;5023612;28;20038;-60
2022/08/17 23:22:34;;;;;;;4.88;0.95;;;;;;;;;;5024213;28;20078;-61
2022/08/17 23:25:00;;;;;;;3.95;1.10;;;;;;;;;;5023806;28;20037;-63
2022/08/17 23:27:30;;;;;;;8.60;2.53;;;;;;;;;;5025829;28;20045;-61
2022/08/17 23:29:57;;;;;;;4.80;1.83;;;;;;;;;;5024714;28;20045;-61
2022/08/17 23:32:24;;;;;;;4.75;1.35;;;;;;;;;;5023987;28;20048;-61
2022/08/17 23:34:51;;;;;;;4.75;1.20;;;;;;;;;;5025967;28;20391;-61
2022/08/17 23:37:18;;;;;;;3.00;1.10;;;;;;;;;;5023834;28;20605;-62
2022/08/17 23:39:45;;;;;;;2.78;1.10;;;;;;;;;;5042130;28;20041;-61
2022/08/17 23:42:14;;;;;;;6.22;1.15;;;;;;;;;;5045768;28;20098;-61
2022/08/17 23:44:42;;;;;;;4.13;1.13;;;;;;;;;;5043201;28;20075;-62
2022/08/17 23:47:09;;;;;;;3.72;1.20;;;;;;;;;;5042549;28;20048;-61
2022/08/17 23:49:36;;;;;;;10.07;1.13;;;;;;;;;;5041078;28;20836;-62
2022/08/17 23:52:04;;;;;;;4.22;1.10;;;;;;;;;;5042852;28;20083;-60
2022/08/17 23:54:42;;;;;;;6.28;1.30;;;;;;;;;;5043549;28;20098;-60
2022/08/17 23:57:10;;;;;;;7.88;1.30;;;;;;;;;;5044640;28;20048;-61
2022/08/17 23:59:37;;;;;;;4.45;1.08;;;;;;;;;;5042362;28;20087;-61
